Time;durP1;ratioP1;P1;durP2;ratioP2;P2;SDS_P1;SDS_P2;PMS_P1;PMS_P2;Temp;Humidity;BMP_temperature;BMP_pressure;BME280_temperature;BME280_humidity;BME280_pressure;Samples;Min_cycle;Max_cycle;Signal;HPM_P1;HPM_P2
2022/08/31 00:05:43;;;;;;;1999.90;800.92;;;16.60;41.60;;;;;;5154253;27;20399;-70
2022/08/31 00:08:08;;;;;;;1999.90;999.90;;;16.60;36.80;;;;;;5118636;27;20047;-71
2022/08/31 00:10:39;;;;;;;1999.90;817.80;;;16.60;39.50;;;;;;5135589;27;20047;-72
2022/08/31 00:13:05;;;;;;;1999.90;999.90;;;16.60;29.60;;;;;;5135354;27;20646;-70
2022/08/31 00:15:31;;;;;;;1999.90;936.50;;;16.60;29.10;;;;;;5154264;27;20039;-71
2022/08/31 00:17:57;;;;;;;1999.90;767.40;;;16.60;32.10;;;;;;5153259;27;20489;-70
2022/08/31 00:20:26;;;;;;;1999.90;999.90;;;16.60;38.10;;;;;;5154103;27;20126;-72
2022/08/31 00:22:52;;;;;;;1999.90;827.42;;;16.60;36.90;;;;;;5153446;27;20049;-71
2022/08/31 00:25:17;;;;;;;1999.90;995.47;;;16.50;36.30;;;;;;5154354;27;20039;-71
2022/08/31 00:27:43;;;;;;;1999.90;999.90;;;16.50;36.10;;;;;;5134864;27;20435;-74
2022/08/31 00:30:11;;;;;;;1999.90;999.90;;;16.50;35.00;;;;;;5135365;27;20050;-71
2022/08/31 00:32:37;;;;;;;1999.90;999.90;;;16.40;33.70;;;;;;5153427;27;20086;-71
2022/08/31 00:35:04;;;;;;;1999.90;777.15;;;16.50;35.60;;;;;;5153547;27;20047;-74
2022/08/31 00:37:30;;;;;;;1999.90;999.90;;;16.40;35.30;;;;;;5153980;27;20041;-71
2022/08/31 00:39:56;;;;;;;1885.45;835.97;;;16.50;34.50;;;;;;5153599;27;20386;-71
2022/08/31 00:42:22;;;;;;;1999.90;999.90;;;16.40;31.40;;;;;;5153262;27;20050;-70
2022/08/31 00:44:48;;;;;;;1999.90;999.90;;;16.40;26.80;;;;;;5153089;27;20107;-71
2022/08/31 00:47:14;;;;;;;1999.90;959.72;;;16.30;24.10;;;;;;5152939;27;20039;-71
2022/08/31 00:49:42;;;;;;;1999.90;798.65;;;16.30;15.50;;;;;;5153700;27;20069;-70
2022/08/31 00:52:20;;;;;;;1999.90;999.90;;;16.10;16.20;;;;;;5153619;27;20051;-70
2022/08/31 00:55:10;;;;;;;1972.80;600.92;;;16.10;21.20;;;;;;5134932;27;20043;-72
2022/08/31 00:57:40;;;;;;;1999.90;999.90;;;16.00;15.60;;;;;;5153332;27;20054;-70
2022/08/31 01:00:13;;;;;;;1999.90;999.90;;;15.90;19.20;;;;;;5153164;27;20043;-71
2022/08/31 01:02:39;;;;;;;1999.90;990.65;;;15.90;22.30;;;;;;5152840;27;20082;-75
2022/08/31 01:05:06;;;;;;;1999.90;999.90;;;15.80;25.90;;;;;;5152201;27;20039;-74
2022/08/31 01:07:32;;;;;;;1999.90;999.90;;;15.70;33.20;;;;;;5135034;27;20429;-71
2022/08/31 01:09:58;;;;;;;1999.90;999.90;;;15.70;33.10;;;;;;5152612;27;20050;-70
2022/08/31 01:12:26;;;;;;;1999.90;812.15;;;15.60;38.40;;;;;;5135392;27;20399;-70
2022/08/31 01:14:52;;;;;;;1647.40;519.75;;;15.60;33.00;;;;;;5152817;27;20146;-75
2022/08/31 01:17:19;;;;;;;1999.90;999.90;;;15.50;31.70;;;;;;5152472;27;20506;-71
2022/08/31 01:20:10;;;;;;;1999.90;747.38;;;15.50;30.40;;;;;;5153669;27;20134;-71
2022/08/31 01:22:50;;;;;;;1999.90;999.90;;;15.40;31.40;;;;;;5152549;27;20490;-70
2022/08/31 01:25:17;;;;;;;1999.90;999.90;;;15.40;38.10;;;;;;5134530;27;20264;-70
2022/08/31 01:27:44;;;;;;;1999.90;803.13;;;15.40;45.00;;;;;;5134295;27;20047;-70
2022/08/31 01:30:11;;;;;;;1999.90;999.90;;;15.30;44.40;;;;;;5134889;27;20460;-70
2022/08/31 01:32:38;;;;;;;1999.90;999.90;;;15.30;45.30;;;;;;5134841;27;20047;-70
2022/08/31 01:35:06;;;;;;;1999.90;999.90;;;15.20;50.80;;;;;;5153387;27;20054;-71
2022/08/31 01:37:32;;;;;;;1999.90;999.90;;;15.20;55.40;;;;;;5134604;27;20499;-71
2022/08/31 01:39:58;;;;;;;1999.90;999.90;;;15.00;54.90;;;;;;5134433;27;20421;-71
2022/08/31 01:42:23;;;;;;;1999.90;999.90;;;15.00;57.20;;;;;;5134239;27;20111;-71
2022/08/31 01:44:49;;;;;;;1999.90;999.90;;;15.00;63.10;;;;;;5134384;27;20046;-72
2022/08/31 01:47:15;;;;;;;1999.90;999.90;;;14.90;58.30;;;;;;5153884;27;20039;-71
2022/08/31 01:49:41;;;;;;;1999.90;999.90;;;14.80;60.30;;;;;;5156683;27;20475;-71
2022/08/31 01:52:06;;;;;;;1999.90;999.90;;;14.80;65.10;;;;;;5138032;27;20050;-71
2022/08/31 01:54:32;;;;;;;1999.90;999.90;;;14.70;60.70;;;;;;5138838;27;20447;-71
2022/08/31 01:57:00;;;;;;;1999.90;999.90;;;14.70;62.70;;;;;;5156203;27;20046;-72
2022/08/31 01:59:25;;;;;;;1999.90;999.90;;;14.70;64.00;;;;;;5157321;27;20055;-71
2022/08/31 02:01:54;;;;;;;1999.90;915.05;;;14.50;65.00;;;;;;5156706;27;20043;-72
2022/08/31 02:04:22;;;;;;;1999.90;977.80;;;14.50;59.30;;;;;;5155642;27;20039;-71
2022/08/31 02:06:50;;;;;;;1999.90;960.35;;;14.40;52.20;;;;;;5156783;27;20126;-71
2022/08/31 02:09:16;;;;;;;1999.90;999.90;;;14.50;53.10;;;;;;5156703;27;20046;-71
2022/08/31 02:11:42;;;;;;;1999.90;999.90;;;14.30;54.40;;;;;;5156788;27;20073;-71
2022/08/31 02:14:09;;;;;;;1999.90;999.90;;;14.40;59.80;;;;;;5156294;27;20574;-71
2022/08/31 02:16:36;;;;;;;1999.90;999.90;;;14.80;67.10;;;;;;5138179;27;20050;-73
2022/08/31 02:19:03;;;;;;;1999.90;999.90;;;14.20;68.70;;;;;;5156437;27;20046;-72
2022/08/31 02:21:29;;;;;;;1999.90;999.90;;;14.10;68.60;;;;;;5137810;27;20039;-72
2022/08/31 02:23:55;;;;;;;1999.90;999.90;;;14.00;68.20;;;;;;5138301;27;20729;-72
2022/08/31 02:26:21;;;;;;;1999.90;999.90;;;14.00;74.60;;;;;;5156771;27;20107;-74
2022/08/31 02:28:47;;;;;;;1999.90;999.90;;;13.90;79.30;;;;;;5156074;27;20378;-72
2022/08/31 02:31:13;;;;;;;1999.90;999.90;;;13.80;81.90;;;;;;5156278;27;20133;-72
2022/08/31 02:33:39;;;;;;;1999.90;999.90;;;13.80;99.90;;;;;;5156477;27;20043;-71
2022/08/31 02:36:05;;;;;;;1999.90;999.90;;;13.80;96.90;;;;;;5137608;27;20402;-71
2022/08/31 02:38:32;;;;;;;1999.90;999.90;;;13.70;98.80;;;;;;5156323;27;20050;-71
2022/08/31 02:40:58;;;;;;;1999.90;999.90;;;13.70;99.90;;;;;;5137177;27;20047;-74
2022/08/31 02:43:24;;;;;;;1999.90;999.90;;;13.70;99.90;;;;;;5136718;27;20398;-72
2022/08/31 02:45:50;;;;;;;1999.90;999.90;;;13.70;99.90;;;;;;5155724;27;20049;-71
2022/08/31 02:48:15;;;;;;;1999.90;999.90;;;13.60;99.90;;;;;;5137017;27;20053;-72
2022/08/31 02:50:47;;;;;;;1999.90;999.90;;;13.60;99.90;;;;;;5156257;27;20053;-71
2022/08/31 02:53:15;;;;;;;1999.90;999.90;;;13.60;99.90;;;;;;5155597;27;20132;-71
2022/08/31 02:55:41;;;;;;;1999.90;999.90;;;13.50;99.90;;;;;;5155915;27;20137;-71
2022/08/31 02:58:08;;;;;;;1999.90;999.90;;;13.50;99.90;;;;;;5135708;27;20065;-71
2022/08/31 03:00:34;;;;;;;1999.90;999.90;;;13.40;99.90;;;;;;5154228;27;20630;-76
2022/08/31 03:03:00;;;;;;;1999.90;999.90;;;13.40;99.90;;;;;;5154007;27;20039;-71
2022/08/31 03:05:26;;;;;;;1999.90;999.90;;;13.40;99.90;;;;;;5155911;27;20049;-71
2022/08/31 03:07:53;;;;;;;1999.90;999.90;;;13.40;99.90;;;;;;5155600;27;20038;-71
2022/08/31 03:10:21;;;;;;;1999.90;999.90;;;13.30;99.90;;;;;;5155445;27;20082;-71
2022/08/31 03:12:48;;;;;;;1999.90;999.90;;;13.20;99.90;;;;;;5155164;27;20090;-71
2022/08/31 03:15:15;;;;;;;1999.90;999.90;;;13.20;99.90;;;;;;5155990;27;20042;-71
2022/08/31 03:17:41;;;;;;;;;;;13.10;99.90;;;;;;5156005;27;20462;-71
2022/08/31 03:20:07;;;;;;;1999.90;999.90;;;13.00;99.90;;;;;;5136784;27;19919;-71
2022/08/31 03:22:33;;;;;;;1999.90;999.90;;;13.00;99.90;;;;;;5154839;27;20084;-71
2022/08/31 03:24:59;;;;;;;1999.90;999.90;;;13.00;99.90;;;;;;5136066;27;20095;-71
2022/08/31 03:27:26;;;;;;;1999.90;999.90;;;13.00;99.90;;;;;;5155055;27;20417;-70
2022/08/31 03:29:52;;;;;;;1999.90;999.90;;;13.00;99.90;;;;;;5155103;27;20467;-72
2022/08/31 03:32:19;;;;;;;1999.90;999.90;;;12.90;99.90;;;;;;5154647;27;20349;-75
2022/08/31 03:34:45;;;;;;;1999.90;999.90;;;12.90;99.90;;;;;;5155465;27;20467;-71
2022/08/31 03:37:11;;;;;;;1999.90;999.90;;;12.80;99.90;;;;;;5136793;27;20043;-71
2022/08/31 03:39:37;;;;;;;1999.90;999.90;;;13.00;99.90;;;;;;5154517;27;20047;-71
2022/08/31 03:42:05;;;;;;;1999.90;999.90;;;12.90;99.90;;;;;;5153896;27;20054;-71
2022/08/31 03:44:31;;;;;;;;;;;12.70;99.90;;;;;;5155364;27;20046;-71
2022/08/31 03:46:57;;;;;;;1999.90;999.90;;;12.60;99.90;;;;;;5154416;27;19926;-71
2022/08/31 03:49:22;;;;;;;1999.90;999.90;;;12.60;99.90;;;;;;5154615;27;20053;-70
2022/08/31 03:51:48;;;;;;;1999.90;999.90;;;12.60;99.90;;;;;;5154221;27;20034;-76
2022/08/31 03:54:14;;;;;;;1999.90;999.90;;;12.50;99.90;;;;;;5154625;27;20046;-78
2022/08/31 03:56:40;;;;;;;1999.90;999.90;;;12.50;99.90;;;;;;5136528;27;20035;-76
2022/08/31 03:59:06;;;;;;;1999.90;999.90;;;12.40;99.90;;;;;;5136111;27;20103;-76
2022/08/31 04:01:35;;;;;;;1999.90;999.90;;;13.10;99.90;;;;;;5135291;27;20093;-76
2022/08/31 04:04:01;;;;;;;1999.90;999.90;;;12.40;99.90;;;;;;5153299;27;20121;-76
2022/08/31 04:06:27;;;;;;;1999.90;999.90;;;12.40;99.90;;;;;;5154479;27;20042;-76
2022/08/31 04:08:54;;;;;;;1999.90;999.90;;;12.30;99.90;;;;;;5136946;27;20104;-76
2022/08/31 04:11:20;;;;;;;1999.90;999.90;;;12.30;99.90;;;;;;5153569;27;20053;-76
2022/08/31 04:13:46;;;;;;;1999.90;999.90;;;12.30;99.90;;;;;;5153935;27;20099;-77
2022/08/31 04:16:15;;;;;;;1999.90;999.90;;;12.30;99.90;;;;;;5153657;27;20040;-81
2022/08/31 04:18:42;;;;;;;1999.90;999.90;;;12.30;99.90;;;;;;5153903;27;20043;-76
2022/08/31 04:21:29;;;;;;;1999.90;999.90;;;12.30;99.90;;;;;;5153062;27;20121;-76
2022/08/31 04:23:56;;;;;;;1999.90;999.90;;;12.20;99.90;;;;;;5154413;27;20086;-76
2022/08/31 04:26:28;;;;;;;1999.90;999.90;;;12.20;99.90;;;;;;5153984;27;20058;-81
2022/08/31 04:28:54;;;;;;;1999.90;999.90;;;12.70;99.90;;;;;;5154171;27;20051;-76
2022/08/31 04:31:21;;;;;;;1999.90;999.90;;;12.20;99.90;;;;;;5153472;27;20038;-83
2022/08/31 04:33:47;;;;;;;1999.90;999.90;;;12.20;99.90;;;;;;5135771;27;20050;-75
2022/08/31 04:36:16;;;;;;;1999.90;999.90;;;12.10;99.90;;;;;;5133685;27;20046;-79
2022/08/31 04:38:47;;;;;;;1999.90;999.90;;;12.10;99.90;;;;;;5154396;27;20471;-76
2022/08/31 04:41:14;;;;;;;1999.90;999.90;;;12.10;99.90;;;;;;5134857;27;20403;-76
2022/08/31 04:43:47;;;;;;;1999.90;999.90;;;12.80;99.90;;;;;;5153726;27;20563;-76
2022/08/31 04:46:13;;;;;;;1999.90;999.90;;;12.10;99.90;;;;;;5153145;27;20516;-83
2022/08/31 04:48:39;;;;;;;1999.90;999.90;;;12.00;99.90;;;;;;5154118;27;20125;-78
2022/08/31 04:51:17;;;;;;;1999.90;999.90;;;12.00;99.90;;;;;;5154006;27;20126;-76
2022/08/31 04:53:44;;;;;;;1999.90;999.90;;;11.90;99.90;;;;;;5154126;27;20053;-76
2022/08/31 04:56:18;;;;;;;1999.90;999.90;;;11.90;99.90;;;;;;5153261;27;20050;-76
2022/08/31 04:58:50;;;;;;;1999.90;999.90;;;11.90;99.90;;;;;;5153593;27;20046;-76
2022/08/31 05:01:20;;;;;;;1999.90;999.90;;;11.90;99.90;;;;;;5153771;27;20051;-76
2022/08/31 05:03:49;;;;;;;1999.90;999.90;;;11.90;99.90;;;;;;5116671;27;20047;-77
2022/08/31 05:06:16;;;;;;;1999.90;999.90;;;11.90;99.90;;;;;;5135048;27;20515;-76
2022/08/31 05:08:43;;;;;;;1999.90;999.90;;;11.90;99.90;;;;;;5134181;27;20135;-76
2022/08/31 05:11:11;;;;;;;1999.90;999.90;;;11.90;99.90;;;;;;5153566;27;20278;-76
2022/08/31 05:13:37;;;;;;;1999.90;999.90;;;11.80;99.90;;;;;;5135610;27;20391;-77
2022/08/31 05:16:04;;;;;;;1999.90;999.90;;;11.90;99.90;;;;;;5153559;27;20035;-76
2022/08/31 05:18:30;;;;;;;1999.90;999.90;;;11.90;99.90;;;;;;5100072;27;20059;-76
2022/08/31 05:20:56;;;;;;;1999.90;999.90;;;11.90;99.90;;;;;;5135067;27;20174;-84
2022/08/31 05:23:22;;;;;;;1999.90;999.90;;;11.90;99.90;;;;;;5137454;27;20085;-78
2022/08/31 05:25:48;;;;;;;1999.90;999.90;;;11.90;99.90;;;;;;5157383;27;20065;-80
2022/08/31 05:28:15;;;;;;;1999.90;999.90;;;12.20;99.90;;;;;;5138881;27;20047;-77
2022/08/31 05:30:44;;;;;;;1999.90;999.90;;;11.90;99.90;;;;;;5139472;27;20394;-77
2022/08/31 05:33:10;;;;;;;1999.90;999.90;;;12.70;99.90;;;;;;5158212;27;20050;-76
2022/08/31 05:35:36;;;;;;;1999.90;999.90;;;11.90;99.90;;;;;;5157707;27;20394;-76
2022/08/31 05:38:02;;;;;;;1999.90;999.90;;;12.20;99.90;;;;;;5158268;27;20045;-77
2022/08/31 05:40:28;;;;;;;1999.90;999.90;;;12.00;99.90;;;;;;5137798;27;20047;-80
2022/08/31 05:42:58;;;;;;;1999.90;999.90;;;12.10;99.90;;;;;;5139336;27;20363;-76
2022/08/31 05:45:23;;;;;;;1999.90;999.90;;;12.00;99.90;;;;;;5139756;27;20050;-77
2022/08/31 05:47:49;;;;;;;1999.90;999.90;;;12.20;99.90;;;;;;5139375;27;20050;-76
2022/08/31 05:50:17;;;;;;;1999.90;999.90;;;12.10;99.90;;;;;;5157590;27;20049;-91
2022/08/31 05:52:43;;;;;;;;;;;12.20;99.90;;;;;;5158082;27;20046;-77
2022/08/31 05:55:10;;;;;;;1999.90;999.90;;;12.20;99.90;;;;;;5138947;27;19963;-77
2022/08/31 05:57:38;;;;;;;1999.90;999.90;;;12.30;99.90;;;;;;5157407;27;20402;-77
2022/08/31 06:00:04;;;;;;;;;;;12.40;99.90;;;;;;5139987;27;20057;-77
2022/08/31 06:02:30;;;;;;;1999.90;999.90;;;12.40;99.90;;;;;;5157090;27;20292;-77
2022/08/31 06:04:56;;;;;;;1999.90;999.90;;;13.30;99.90;;;;;;5155794;27;20103;-76
2022/08/31 06:07:22;;;;;;;1999.90;999.90;;;12.50;99.90;;;;;;5138207;27;20042;-78
2022/08/31 06:09:48;;;;;;;1999.90;999.90;;;12.50;99.90;;;;;;5156995;27;20068;-77
2022/08/31 06:12:13;;;;;;;1999.90;999.90;;;14.20;99.90;;;;;;5156999;27;20458;-80
2022/08/31 06:14:40;;;;;;;1999.90;999.90;;;12.60;99.90;;;;;;5155362;27;20102;-77
2022/08/31 06:17:06;;;;;;;1999.90;999.90;;;12.60;99.90;;;;;;5155420;27;20054;-76
2022/08/31 06:19:32;;;;;;;1999.90;999.90;;;12.70;99.90;;;;;;5156790;27;20042;-76
2022/08/31 06:21:57;;;;;;;1999.90;999.90;;;12.70;99.90;;;;;;5157075;27;20086;-76
2022/08/31 06:24:23;;;;;;;1999.90;999.90;;;12.80;99.90;;;;;;5138436;27;20046;-76
2022/08/31 06:26:54;;;;;;;1999.90;999.90;;;12.90;99.90;;;;;;5155837;27;20046;-76
2022/08/31 06:29:20;;;;;;;1999.90;999.90;;;13.00;99.90;;;;;;5157051;27;20062;-93
2022/08/31 06:31:46;;;;;;;1999.90;999.90;;;13.00;99.90;;;;;;5138411;27;20043;-76
2022/08/31 06:34:14;;;;;;;1999.90;387.38;;;13.10;99.90;;;;;;5157082;27;20490;-76
2022/08/31 06:36:40;;;;;;;1999.90;999.90;;;13.20;99.90;;;;;;5156233;27;20227;-77
2022/08/31 06:39:06;;;;;;;1999.90;995.72;;;13.20;99.90;;;;;;5104579;27;20039;-77
2022/08/31 06:41:34;;;;;;;1999.90;999.90;;;13.30;99.90;;;;;;5137344;27;20039;-77
2022/08/31 06:44:00;;;;;;;1999.90;999.90;;;13.40;99.90;;;;;;5136916;27;20089;-79
2022/08/31 06:46:27;;;;;;;1999.90;999.90;;;13.40;99.90;;;;;;5120166;27;20467;-77
2022/08/31 06:48:54;;;;;;;1999.90;999.90;;;13.50;99.90;;;;;;5138182;27;20042;-77
2022/08/31 06:51:21;;;;;;;1999.90;999.90;;;13.60;99.90;;;;;;5121549;27;20050;-82
2022/08/31 06:53:46;;;;;;;1999.90;999.90;;;13.70;99.90;;;;;;5156697;27;20046;-77
2022/08/31 06:56:15;;;;;;;1999.90;999.90;;;14.10;99.90;;;;;;5156408;27;20088;-81
2022/08/31 06:58:41;;;;;;;1999.90;999.90;;;13.90;99.90;;;;;;5156168;27;20306;-76
2022/08/31 07:01:10;;;;;;;1999.90;997.33;;;14.00;99.90;;;;;;5137928;27;20046;-76
2022/08/31 07:03:37;;;;;;;1999.90;888.17;;;14.10;99.90;;;;;;5154978;27;20117;-76
2022/08/31 07:06:10;;;;;;;1999.90;999.90;;;14.20;99.90;;;;;;5156447;27;20043;-80
2022/08/31 07:08:37;;;;;;;1999.90;999.90;;;14.30;99.90;;;;;;5154658;27;20046;-77
2022/08/31 07:11:03;;;;;;;1999.90;955.17;;;14.50;99.90;;;;;;5155913;27;20456;-78
2022/08/31 07:13:29;;;;;;;1999.90;999.90;;;14.50;99.90;;;;;;5155892;27;20088;-77
2022/08/31 07:16:10;;;;;;;1999.90;999.90;;;14.70;99.90;;;;;;5156140;27;20123;-77
2022/08/31 07:18:37;;;;;;;1999.90;999.90;;;14.70;99.90;;;;;;5155566;27;20535;-77
2022/08/31 07:21:08;;;;;;;1999.90;999.90;;;14.80;99.90;;;;;;5155743;27;20125;-78
2022/08/31 07:23:35;;;;;;;1999.90;999.90;;;14.90;99.90;;;;;;5155534;27;20047;-78
2022/08/31 07:26:10;;;;;;;1999.90;999.90;;;15.00;99.90;;;;;;5155811;27;20125;-78
2022/08/31 07:28:37;;;;;;;1999.90;999.90;;;15.10;99.90;;;;;;5155512;27;20051;-77
2022/08/31 07:31:04;;;;;;;1999.90;601.17;;;15.20;99.90;;;;;;5155056;27;20399;-77
2022/08/31 07:33:37;;;;;;;1999.90;999.90;;;15.60;99.90;;;;;;5136815;27;20503;-78
2022/08/31 07:36:09;;;;;;;1999.90;803.95;;;17.50;99.90;;;;;;5155987;27;20039;-78
2022/08/31 07:44:05;;;;;;;1999.90;999.90;;;23.00;1.00;;;;;;5155428;27;20054;-78
2022/08/31 07:46:31;;;;;;;1999.90;999.90;;;24.50;1.00;;;;;;5154794;27;20045;-80
2022/08/31 07:48:57;;;;;;;1999.90;999.90;;;25.80;1.00;;;;;;5155464;27;20042;-78
2022/08/31 07:51:26;;;;;;;1999.90;999.90;;;26.80;1.00;;;;;;5155307;27;20123;-79
2022/08/31 07:53:53;;;;;;;1999.90;999.90;;;27.40;1.00;;;;;;5155139;27;20054;-79
2022/08/31 07:56:22;;;;;;;1999.90;999.90;;;27.90;1.00;;;;;;5155442;27;20057;-79
2022/08/31 07:58:48;;;;;;;1999.90;999.90;;;28.40;1.00;;;;;;5155142;27;20042;-81
2022/08/31 08:01:15;;;;;;;1999.90;999.90;;;28.80;1.00;;;;;;5136320;27;20085;-79
2022/08/31 08:03:43;;;;;;;1999.90;999.90;;;29.00;1.00;;;;;;5152907;27;20046;-80
2022/08/31 08:06:14;;;;;;;1999.90;999.90;;;29.50;1.00;;;;;;5154613;27;20122;-81
2022/08/31 08:08:44;;;;;;;1999.90;999.90;;;29.60;1.00;;;;;;5154517;27;20049;-78
2022/08/31 08:11:17;;;;;;;1999.90;999.90;;;30.30;1.00;;;;;;5154484;27;20491;-77
2022/08/31 08:13:43;;;;;;;1999.90;999.90;;;30.60;99.90;;;;;;5153517;27;20050;-77
2022/08/31 08:16:10;;;;;;;1999.90;999.90;;;30.90;1.00;;;;;;5154838;27;20085;-78
2022/08/31 08:18:35;;;;;;;1999.90;999.90;;;31.30;1.00;;;;;;5156675;27;20049;-77
2022/08/31 08:21:01;;;;;;;1999.90;999.90;;;31.30;99.90;;;;;;5155953;27;20478;-78
2022/08/31 08:23:27;;;;;;;1999.90;999.90;;;31.50;99.90;;;;;;5154261;27;20086;-89
2022/08/31 08:25:53;;;;;;;1999.90;999.90;;;31.60;99.90;;;;;;5154139;27;20451;-78
2022/08/31 08:28:20;;;;;;;1999.90;999.90;;;31.60;99.90;;;;;;5153739;27;20051;-78
2022/08/31 08:30:49;;;;;;;1999.90;999.90;;;31.90;99.90;;;;;;5136260;27;20080;-79
2022/08/31 08:33:16;;;;;;;1999.90;999.90;;;31.90;99.90;;;;;;5136441;27;20039;-78
2022/08/31 08:35:43;;;;;;;1999.90;999.90;;;31.80;99.90;;;;;;5136262;27;20117;-79
2022/08/31 08:38:09;;;;;;;1999.90;999.90;;;32.00;99.90;;;;;;5135852;27;20125;-78
2022/08/31 08:40:41;;;;;;;1999.90;999.90;;;31.70;99.90;;;;;;5154184;27;20191;-78
2022/08/31 08:43:10;;;;;;;1999.90;999.90;;;32.20;99.90;;;;;;5153242;27;20498;-87
2022/08/31 08:45:37;;;;;;;1999.90;999.90;;;32.60;99.90;;;;;;5135788;27;20135;-78
2022/08/31 08:48:10;;;;;;;1999.90;999.90;;;33.00;99.90;;;;;;5154382;27;20057;-78
2022/08/31 08:50:38;;;;;;;1999.90;999.90;;;33.50;99.90;;;;;;5136013;27;20059;-78
2022/08/31 08:53:09;;;;;;;1999.90;999.90;;;33.10;99.90;;;;;;5136296;27;20399;-78
2022/08/31 08:55:38;;;;;;;1999.90;999.90;;;33.30;99.90;;;;;;5153917;27;20055;-79
2022/08/31 08:58:06;;;;;;;1999.90;999.90;;;33.20;99.90;;;;;;5152882;27;20046;-79
2022/08/31 09:00:33;;;;;;;1999.90;999.90;;;33.80;99.90;;;;;;5154182;27;20506;-79
2022/08/31 09:03:19;;;;;;;1999.90;999.90;;;33.30;99.90;;;;;;5117860;27;20095;-82
2022/08/31 09:06:00;;;;;;;1999.90;999.90;;;33.00;99.90;;;;;;5153591;27;20121;-80
2022/08/31 09:08:50;;;;;;;1999.90;999.90;;;32.70;99.90;;;;;;5153947;27;20042;-78
2022/08/31 09:11:45;;;;;;;1999.90;999.90;;;32.70;99.90;;;;;;5154209;27;20190;-78
2022/08/31 09:14:38;;;;;;;1999.90;999.90;;;32.00;99.90;;;;;;5153700;27;20093;-78
2022/08/31 09:17:16;;;;;;;1999.90;999.90;;;31.30;99.90;;;;;;5135711;27;20050;-78
2022/08/31 09:20:04;;;;;;;1999.90;999.90;;;30.70;99.90;;;;;;5153935;27;20135;-78
2022/08/31 09:22:45;;;;;;;1999.90;999.90;;;30.60;99.90;;;;;;5154344;27;20100;-78
2022/08/31 09:25:50;;;;;;;1999.90;999.90;;;30.10;99.90;;;;;;5136188;27;20122;-79
2022/08/31 09:28:17;;;;;;;1999.90;999.90;;;29.80;99.90;;;;;;5149030;27;20045;-78
2022/08/31 09:30:50;;;;;;;1999.90;999.90;;;29.80;99.90;;;;;;5153313;27;20049;-78
2022/08/31 09:33:26;;;;;;;1999.90;999.90;;;30.50;99.90;;;;;;5154276;27;20054;-80
2022/08/31 09:36:12;;;;;;;1999.90;999.90;;;30.90;99.90;;;;;;5135461;27;20051;-79
2022/08/31 09:38:39;;;;;;;1999.90;999.90;;;31.40;99.90;;;;;;5153279;27;20452;-78
2022/08/31 09:41:27;;;;;;;1999.90;999.90;;;31.10;99.90;;;;;;5154171;27;20090;-78
2022/08/31 09:43:55;;;;;;;1999.90;999.90;;;31.60;99.90;;;;;;5119312;27;20051;-78
2022/08/31 09:46:27;;;;;;;1999.90;999.90;;;32.40;99.90;;;;;;5153237;27;20051;-81
2022/08/31 09:48:58;;;;;;;1999.90;999.90;;;32.60;99.90;;;;;;5135235;27;20097;-80
2022/08/31 09:51:30;;;;;;;1999.90;999.90;;;32.20;99.90;;;;;;5117919;27;20047;-78
2022/08/31 09:57:09;;;;;;;1999.90;999.90;;;33.00;99.90;;;;;;5134874;27;20062;-80
2022/08/31 09:59:46;;;;;;;1999.90;999.90;;;33.10;99.90;;;;;;5153366;27;20061;-80
2022/08/31 10:02:12;;;;;;;1999.90;999.90;;;33.40;99.90;;;;;;5153604;27;20122;-79
2022/08/31 10:04:50;;;;;;;1999.90;999.90;;;34.10;99.90;;;;;;5133045;27;20129;-80
2022/08/31 10:07:42;;;;;;;1999.90;999.90;;;33.20;99.90;;;;;;5134185;27;20122;-79
2022/08/31 10:10:26;;;;;;;1999.90;999.90;;;33.30;99.90;;;;;;5156982;27;20046;-79
2022/08/31 10:13:09;;;;;;;1999.90;999.90;;;34.10;99.90;;;;;;5139102;27;20050;-79
2022/08/31 10:15:51;;;;;;;1999.90;999.90;;;34.90;99.90;;;;;;5157615;27;20046;-79
2022/08/31 10:18:46;;;;;;;1999.90;999.90;;;35.40;99.90;;;;;;5157278;27;20479;-79
2022/08/31 10:21:20;;;;;;;1999.90;999.90;;;35.60;99.90;;;;;;5157103;27;20038;-79
2022/08/31 10:24:04;;;;;;;1999.90;999.90;;;35.70;99.90;;;;;;5157117;27;20050;-79
2022/08/31 10:26:37;;;;;;;1999.90;999.90;;;35.90;99.90;;;;;;5156463;27;20062;-81
2022/08/31 10:29:39;;;;;;;1999.90;999.90;;;35.90;99.90;;;;;;5157111;27;20054;-78
2022/08/31 10:32:16;;;;;;;1999.90;999.90;;;36.10;99.90;;;;;;5098823;27;20566;-78
2022/08/31 10:35:04;;;;;;;1999.90;999.90;;;36.10;99.90;;;;;;5138944;27;20050;-87
2022/08/31 10:37:42;;;;;;;1999.90;999.90;;;36.50;99.90;;;;;;5139012;27;20054;-79
2022/08/31 10:40:17;;;;;;;1999.90;999.90;;;36.40;99.90;;;;;;5156877;27;20054;-80
2022/08/31 10:42:58;;;;;;;1999.90;999.90;;;36.40;99.90;;;;;;5156650;27;20043;-79
2022/08/31 10:45:26;;;;;;;1999.90;999.90;;;36.80;99.90;;;;;;5138675;27;20049;-79
2022/08/31 10:47:55;;;;;;;1999.90;999.90;;;36.90;99.90;;;;;;5138230;27;20173;-79
2022/08/31 10:50:43;;;;;;;1999.90;999.90;;;37.40;99.90;;;;;;5157239;27;20082;-79
2022/08/31 10:53:12;;;;;;;1999.90;999.90;;;37.40;99.90;;;;;;5157027;27;20133;-80
2022/08/31 10:56:01;;;;;;;1999.90;999.90;;;37.40;99.90;;;;;;5156683;27;20066;-79
2022/08/31 10:58:26;;;;;;;1999.90;999.90;;;37.60;99.90;;;;;;5156321;27;20445;-78
2022/08/31 11:01:06;;;;;;;1999.90;999.90;;;37.60;99.90;;;;;;5156380;27;20047;-79
2022/08/31 11:03:41;;;;;;;1999.90;999.90;;;37.80;99.90;;;;;;5154954;27;20088;-79
2022/08/31 11:06:34;;;;;;;1999.90;999.90;;;37.60;99.90;;;;;;5155965;27;20392;-80
2022/08/31 11:09:33;;;;;;;1999.90;999.90;;;37.60;99.90;;;;;;5138099;27;20055;-79
2022/08/31 11:12:07;;;;;;;1999.90;999.90;;;37.50;99.90;;;;;;5149376;27;20050;-79
2022/08/31 11:14:49;;;;;;;1999.90;999.90;;;37.20;99.90;;;;;;5138272;27;20042;-80
2022/08/31 11:17:32;;;;;;;1999.90;999.90;;;37.60;99.90;;;;;;5156587;27;20039;-79
2022/08/31 11:20:20;;;;;;;1999.90;999.90;;;37.90;99.90;;;;;;5155269;27;20038;-79
2022/08/31 11:22:51;;;;;;;1999.90;999.90;;;38.20;99.90;;;;;;5155760;27;20038;-83
2022/08/31 11:25:37;;;;;;;1999.90;999.90;;;38.30;99.90;;;;;;5155870;27;20058;-81
2022/08/31 11:28:30;;;;;;;1999.90;999.90;;;37.20;99.90;;;;;;5155950;27;20049;-80
2022/08/31 11:30:58;;;;;;;1999.90;999.90;;;37.50;99.90;;;;;;5137772;27;20061;-80
2022/08/31 11:33:27;;;;;;;1999.90;999.90;;;37.90;99.90;;;;;;5137652;27;20050;-80
2022/08/31 11:36:01;;;;;;;1999.90;999.90;;;38.30;99.90;;;;;;5120490;27;20056;-79
2022/08/31 11:38:48;;;;;;;1999.90;999.90;;;38.30;99.90;;;;;;5138062;27;20083;-80
2022/08/31 11:41:45;;;;;;;1999.90;999.90;;;38.60;99.90;;;;;;5156151;27;20043;-80
2022/08/31 11:44:32;;;;;;;1999.90;999.90;;;38.50;99.90;;;;;;5155847;27;20624;-79
2022/08/31 11:47:11;;;;;;;1999.90;999.90;;;37.40;99.90;;;;;;5155046;27;20506;-79
2022/08/31 11:49:45;;;;;;;1999.90;999.90;;;37.90;99.90;;;;;;5155854;27;20050;-79
2022/08/31 11:52:23;;;;;;;1999.90;999.90;;;37.90;99.90;;;;;;5137268;27;20047;-80
2022/08/31 11:54:49;;;;;;;1999.90;999.90;;;37.80;99.90;;;;;;5155135;27;20050;-80
2022/08/31 11:57:58;;;;;;;1999.90;999.90;;;38.00;99.90;;;;;;5155568;27;20039;-80
2022/08/31 12:00:52;;;;;;;1999.90;999.90;;;38.30;99.90;;;;;;5135910;27;20118;-80
2022/08/31 12:03:49;;;;;;;1999.90;999.90;;;38.50;99.90;;;;;;5135924;27;20047;-81
2022/08/31 12:06:24;;;;;;;1999.90;999.90;;;38.50;99.90;;;;;;5155291;27;20042;-79
2022/08/31 12:08:55;;;;;;;1999.90;999.90;;;38.30;99.90;;;;;;5135999;27;20050;-81
2022/08/31 12:11:52;;;;;;;1999.90;999.90;;;38.40;99.90;;;;;;5155319;27;20509;-81
2022/08/31 12:14:48;;;;;;;1999.90;999.90;;;38.50;99.90;;;;;;5155134;27;20479;-81
2022/08/31 12:17:45;;;;;;;1999.90;999.90;;;38.30;99.90;;;;;;5154277;27;20118;-79
2022/08/31 12:23:50;;;;;;;1999.90;999.90;;;35.00;99.90;;;;;;5154859;27;20539;-82
2022/08/31 12:26:25;;;;;;;1999.90;999.90;;;33.40;99.90;;;;;;5100474;27;20129;-79
2022/08/31 12:28:59;;;;;;;1999.90;999.90;;;32.30;99.90;;;;;;5153389;27;20478;-79
2022/08/31 12:31:25;;;;;;;1999.90;999.90;;;31.20;99.90;;;;;;5154443;27;20073;-79
2022/08/31 12:34:10;;;;;;;1999.90;999.90;;;30.50;99.90;;;;;;5154659;27;20406;-78
2022/08/31 12:36:36;;;;;;;1999.90;999.90;;;29.70;99.90;;;;;;5154847;27;20030;-79